Alberta, VA (23821)

3:58 AM EDT on July 03, 2015 (GMT -0400)
Mecklenburg-Brunswick Regional | | Change Station
CLOSE
Current Station
Airport
Location: South Hill,
Elevation: 443 ft
Nearby Weather Stations

Elev 443 ft 36.69 °N, 78.05 °W | Updated 22 minutes ago

Partly Cloudy
Partly Cloudy
67 °F
Feels Like 67 °F
N
0
Wind Variable Wind from North

Today
High -- | Low -- °F
--% Chance of Precip.
Yesterday
High -- | Low -- °F
Precip. -- in
5:56 AM 8:34 PM
Full, 98% visible
Pressure 29.97 in
Visibility 5.0 miles
Clouds Scattered Clouds 6500 ft
Dew Point 66 °F
Humidity 98%
Rainfall 0.00 in
Snow Depth Not available.
UV 0 out of 12
Pollen 3.30 out of 12
Air Quality Not available.
Flu Activity Not available.
METAR KAVC 030736Z AUTO 00000KT 5SM SCT065 19/19 A2997 RMK AO2 T01930189

More Conditions Fewer Conditions

Pressure 29.97 in
Visibility 5.0 miles
Clouds Scattered Clouds 6500 ft
Dew Point 66 °F
Humidity 98%
Rainfall 0.00 in
Snow Depth Not available.
UV 0 out of 12
Pollen 3.30 out of 12
Air Quality Not available.
Flu Activity Not available.
METAR KAVC 030736Z AUTO 00000KT 5SM SCT065 19/19 A2997 RMK AO2 T01930189

More Conditions Fewer Conditions

10-Day Weather Forecast

×

Almanac

Astronomy

Jul. 03, 2015 Rise Set
Actual Time
Civil Twilight
Nautical Twilight
Astronomical Twilight
Moon
Length of Visible Light
Length of Day
Tomorrow will be .
, % of the Moon is Illuminated

Today's Extremes

State Highs State Lows

Community

WunderPhotos

Upload Photos

1,834,634 photos uploaded!

WunderBlogs® & News

Nearby

Air Quality

  Air Quality AQ Index Pollutant
Not available.

Snow Depth

Station Depth Elevation

Earthquake Activity

City Distance Mag. Time & Date
Minimum magnitude displayed is 2.5.

Coastal Water Temperatures

Place Temperature

Stations

Nearby Weather Stations

Station Location Temp. Windchill Dew Point Humidity Wind Precip. Elev Updated Type